Portada
METAR-TAF:

METAR-TAF

Aeroports :

Plataforma petroliera

Heimdal, Noruega

latitud: 59-34-12N, longitud: 2-13-48E, altitud: 10 m

Observació

L'informe es va fer fa 39 minuts, a les 15:50 UTC
Vent 14 kt del Oest/Nord-Oest
Temperatura 9°C
Humitat 93%
Pressió 1036 hPa
Visibilitat 10 km o més
sense núvols per sota de 1500 mi sense presència de cumulonimbus.

METAR: ENHM 271550Z 30014KT CAVOK 09/08 Q1036 W09/S4

Hora: 18:29 (16:29 UTC)

Pronòstic

L'informe es va fer fa 5 hores i 29 minuts, a les 11:00 UTC
Pronòstic vàlid del 27 a les 12 UTC al 27 a les 17 UTC
Vent 18 kt del Oest
Visibilitat 10 km o més
Escasses núvols a una alçada de 1500 ft
Cel ennuvolat a una alçada de 5000 ft

TAF: ENHM 271100Z 2712/2717 28018KT 9999 FEW015 BKN050

Observacions i pronòstics meteorològics de més de 4000 aeroports (METAR i TAF).

Les estacions disponibles són els punts grocs i vermells al mapa.

Posi el ratolí al punt desitjat per veure el nom de l'estació.

Feu clic per veure les observacions i els pronòstics meteorològics.

Per canviar el mapa: feu clic els botons verds amb una creu de color negre per apropar; al botó verd amb un guió per allunyar la imatge; o en les fletxes verdes per a mapes adjacents.


METAR-TAF: